sensor_id;sensor_type;location;lat;lon;timestamp;P1;durP1;ratioP1;P2;durP2;ratioP2
3177;SDS011;38141;42.666;23.344;2023-04-25T00:01:39;6.43;;;4.97;;
3177;SDS011;38141;42.666;23.344;2023-04-25T00:04:06;7.00;;;4.93;;
3177;SDS011;38141;42.666;23.344;2023-04-25T00:06:35;6.90;;;5.50;;
3177;SDS011;38141;42.666;23.344;2023-04-25T00:09:02;7.43;;;4.90;;
3177;SDS011;38141;42.666;23.344;2023-04-25T00:11:32;8.67;;;5.43;;
3177;SDS011;38141;42.666;23.344;2023-04-25T00:13:59;8.37;;;5.60;;
3177;SDS011;38141;42.666;23.344;2023-04-25T00:16:28;10.37;;;6.83;;
3177;SDS011;38141;42.666;23.344;2023-04-25T00:18:58;7.40;;;5.97;;
3177;SDS011;38141;42.666;23.344;2023-04-25T00:21:25;8.20;;;6.70;;
3177;SDS011;38141;42.666;23.344;2023-04-25T00:23:55;11.90;;;8.43;;
3177;SDS011;38141;42.666;23.344;2023-04-25T00:26:23;7.73;;;5.57;;
3177;SDS011;38141;42.666;23.344;2023-04-25T00:28:50;6.60;;;5.47;;
3177;SDS011;38141;42.666;23.344;2023-04-25T00:31:17;9.07;;;5.63;;
3177;SDS011;38141;42.666;23.344;2023-04-25T00:33:43;8.13;;;5.50;;
3177;SDS011;38141;42.666;23.344;2023-04-25T00:36:10;10.30;;;5.60;;
3177;SDS011;38141;42.666;23.344;2023-04-25T00:38:37;8.80;;;5.90;;
3177;SDS011;38141;42.666;23.344;2023-04-25T00:41:07;7.23;;;5.23;;
3177;SDS011;38141;42.666;23.344;2023-04-25T00:43:40;8.40;;;5.70;;
3177;SDS011;38141;42.666;23.344;2023-04-25T00:46:08;10.87;;;5.83;;
3177;SDS011;38141;42.666;23.344;2023-04-25T00:48:35;9.53;;;6.17;;
3177;SDS011;38141;42.666;23.344;2023-04-25T00:51:02;8.40;;;5.67;;
3177;SDS011;38141;42.666;23.344;2023-04-25T00:53:29;8.23;;;5.40;;
3177;SDS011;38141;42.666;23.344;2023-04-25T00:55:57;13.27;;;6.60;;
3177;SDS011;38141;42.666;23.344;2023-04-25T00:58:26;8.53;;;5.20;;
3177;SDS011;38141;42.666;23.344;2023-04-25T01:00:53;7.77;;;5.37;;
3177;SDS011;38141;42.666;23.344;2023-04-25T01:03:22;8.03;;;5.23;;
3177;SDS011;38141;42.666;23.344;2023-04-25T01:05:50;12.00;;;6.70;;
3177;SDS011;38141;42.666;23.344;2023-04-25T01:08:17;10.97;;;6.30;;
3177;SDS011;38141;42.666;23.344;2023-04-25T01:10:44;11.93;;;6.33;;
3177;SDS011;38141;42.666;23.344;2023-04-25T01:13:11;9.83;;;6.10;;
3177;SDS011;38141;42.666;23.344;2023-04-25T01:15:40;8.87;;;6.00;;
3177;SDS011;38141;42.666;23.344;2023-04-25T01:18:06;10.73;;;6.17;;
3177;SDS011;38141;42.666;23.344;2023-04-25T01:20:33;5.63;;;4.47;;
3177;SDS011;38141;42.666;23.344;2023-04-25T01:23:02;7.17;;;4.60;;
3177;SDS011;38141;42.666;23.344;2023-04-25T01:25:29;7.30;;;4.83;;
3177;SDS011;38141;42.666;23.344;2023-04-25T01:27:56;9.60;;;5.60;;
3177;SDS011;38141;42.666;23.344;2023-04-25T01:30:24;6.60;;;4.90;;
3177;SDS011;38141;42.666;23.344;2023-04-25T01:32:52;7.00;;;5.30;;
3177;SDS011;38141;42.666;23.344;2023-04-25T01:35:21;7.03;;;5.30;;
3177;SDS011;38141;42.666;23.344;2023-04-25T01:37:50;8.60;;;5.23;;
3177;SDS011;38141;42.666;23.344;2023-04-25T01:40:21;8.23;;;5.53;;
3177;SDS011;38141;42.666;23.344;2023-04-25T01:42:50;7.00;;;5.10;;
3177;SDS011;38141;42.666;23.344;2023-04-25T01:45:17;8.07;;;5.97;;
3177;SDS011;38141;42.666;23.344;2023-04-25T01:47:44;9.70;;;6.13;;
3177;SDS011;38141;42.666;23.344;2023-04-25T01:50:14;8.80;;;5.80;;
3177;SDS011;38141;42.666;23.344;2023-04-25T01:52:42;9.00;;;5.80;;
3177;SDS011;38141;42.666;23.344;2023-04-25T01:55:09;10.43;;;5.60;;
3177;SDS011;38141;42.666;23.344;2023-04-25T01:57:37;7.23;;;5.17;;
3177;SDS011;38141;42.666;23.344;2023-04-25T02:00:05;8.10;;;5.70;;
3177;SDS011;38141;42.666;23.344;2023-04-25T02:02:35;7.30;;;5.60;;
3177;SDS011;38141;42.666;23.344;2023-04-25T02:05:02;7.50;;;5.40;;
3177;SDS011;38141;42.666;23.344;2023-04-25T02:07:29;9.97;;;5.87;;
3177;SDS011;38141;42.666;23.344;2023-04-25T02:09:56;9.13;;;5.63;;
3177;SDS011;38141;42.666;23.344;2023-04-25T02:12:23;8.90;;;6.00;;
3177;SDS011;38141;42.666;23.344;2023-04-25T02:14:54;9.13;;;5.77;;
3177;SDS011;38141;42.666;23.344;2023-04-25T02:17:21;8.80;;;6.00;;
3177;SDS011;38141;42.666;23.344;2023-04-25T02:19:48;9.93;;;6.27;;
3177;SDS011;38141;42.666;23.344;2023-04-25T02:22:15;8.47;;;6.07;;
3177;SDS011;38141;42.666;23.344;2023-04-25T02:24:47;9.50;;;6.00;;
3177;SDS011;38141;42.666;23.344;2023-04-25T02:27:14;10.60;;;6.30;;
3177;SDS011;38141;42.666;23.344;2023-04-25T02:29:41;10.00;;;6.40;;
3177;SDS011;38141;42.666;23.344;2023-04-25T02:32:09;9.43;;;5.80;;
3177;SDS011;38141;42.666;23.344;2023-04-25T02:34:36;14.13;;;6.30;;
3177;SDS011;38141;42.666;23.344;2023-04-25T02:37:03;9.63;;;6.03;;
3177;SDS011;38141;42.666;23.344;2023-04-25T02:39:29;11.50;;;6.30;;
3177;SDS011;38141;42.666;23.344;2023-04-25T02:41:56;11.00;;;7.33;;
3177;SDS011;38141;42.666;23.344;2023-04-25T02:44:23;9.67;;;6.73;;
3177;SDS011;38141;42.666;23.344;2023-04-25T02:46:53;11.10;;;7.23;;
3177;SDS011;38141;42.666;23.344;2023-04-25T02:49:21;11.67;;;7.70;;
3177;SDS011;38141;42.666;23.344;2023-04-25T02:51:48;8.87;;;6.20;;
3177;SDS011;38141;42.666;23.344;2023-04-25T02:54:16;12.10;;;7.43;;
3177;SDS011;38141;42.666;23.344;2023-04-25T02:56:43;12.20;;;6.97;;
3177;SDS011;38141;42.666;23.344;2023-04-25T02:59:10;13.60;;;8.20;;
3177;SDS011;38141;42.666;23.344;2023-04-25T03:01:37;13.37;;;7.20;;
3177;SDS011;38141;42.666;23.344;2023-04-25T03:04:04;12.40;;;7.30;;
3177;SDS011;38141;42.666;23.344;2023-04-25T03:06:32;14.10;;;8.63;;
3177;SDS011;38141;42.666;23.344;2023-04-25T03:08:59;15.43;;;8.23;;
3177;SDS011;38141;42.666;23.344;2023-04-25T03:11:26;11.83;;;7.20;;
3177;SDS011;38141;42.666;23.344;2023-04-25T03:13:53;12.43;;;7.50;;
3177;SDS011;38141;42.666;23.344;2023-04-25T03:16:20;15.13;;;7.80;;
3177;SDS011;38141;42.666;23.344;2023-04-25T03:18:47;12.20;;;7.47;;
3177;SDS011;38141;42.666;23.344;2023-04-25T03:21:15;12.60;;;7.17;;
3177;SDS011;38141;42.666;23.344;2023-04-25T03:23:47;10.97;;;6.87;;
3177;SDS011;38141;42.666;23.344;2023-04-25T03:26:14;12.37;;;7.33;;
3177;SDS011;38141;42.666;23.344;2023-04-25T03:28:41;13.53;;;7.30;;
3177;SDS011;38141;42.666;23.344;2023-04-25T03:31:08;12.30;;;7.90;;
3177;SDS011;38141;42.666;23.344;2023-04-25T03:33:35;12.63;;;7.07;;
3177;SDS011;38141;42.666;23.344;2023-04-25T03:36:02;13.00;;;7.80;;
3177;SDS011;38141;42.666;23.344;2023-04-25T03:38:29;12.00;;;8.13;;
3177;SDS011;38141;42.666;23.344;2023-04-25T03:40:57;11.53;;;7.33;;
3177;SDS011;38141;42.666;23.344;2023-04-25T03:43:24;12.37;;;7.50;;
3177;SDS011;38141;42.666;23.344;2023-04-25T03:45:50;10.77;;;6.70;;
3177;SDS011;38141;42.666;23.344;2023-04-25T03:48:17;10.00;;;7.30;;
3177;SDS011;38141;42.666;23.344;2023-04-25T03:50:46;10.33;;;6.97;;
3177;SDS011;38141;42.666;23.344;2023-04-25T03:53:13;13.83;;;7.90;;
3177;SDS011;38141;42.666;23.344;2023-04-25T03:55:40;11.83;;;7.40;;
3177;SDS011;38141;42.666;23.344;2023-04-25T03:58:08;10.73;;;7.60;;
3177;SDS011;38141;42.666;23.344;2023-04-25T04:00:35;11.40;;;7.37;;
3177;SDS011;38141;42.666;23.344;2023-04-25T04:03:02;11.97;;;7.63;;
3177;SDS011;38141;42.666;23.344;2023-04-25T04:05:29;13.57;;;8.13;;
3177;SDS011;38141;42.666;23.344;2023-04-25T04:07:57;13.83;;;7.93;;
3177;SDS011;38141;42.666;23.344;2023-04-25T04:10:24;10.40;;;7.60;;
3177;SDS011;38141;42.666;23.344;2023-04-25T04:12:52;23.73;;;10.93;;
3177;SDS011;38141;42.666;23.344;2023-04-25T04:15:20;15.13;;;8.53;;
3177;SDS011;38141;42.666;23.344;2023-04-25T04:17:47;13.03;;;7.03;;
3177;SDS011;38141;42.666;23.344;2023-04-25T04:20:14;11.10;;;7.17;;
3177;SDS011;38141;42.666;23.344;2023-04-25T04:22:41;11.20;;;7.60;;
3177;SDS011;38141;42.666;23.344;2023-04-25T04:25:09;12.47;;;6.80;;
3177;SDS011;38141;42.666;23.344;2023-04-25T04:27:37;10.50;;;7.20;;
3177;SDS011;38141;42.666;23.344;2023-04-25T04:30:06;10.13;;;7.07;;
3177;SDS011;38141;42.666;23.344;2023-04-25T04:32:36;7.43;;;6.00;;
3177;SDS011;38141;42.666;23.344;2023-04-25T04:35:03;10.07;;;6.67;;
3177;SDS011;38141;42.666;23.344;2023-04-25T04:37:31;9.27;;;5.93;;
3177;SDS011;38141;42.666;23.344;2023-04-25T04:39:59;8.67;;;6.37;;
3177;SDS011;38141;42.666;23.344;2023-04-25T04:42:26;7.70;;;5.70;;
3177;SDS011;38141;42.666;23.344;2023-04-25T04:44:53;9.50;;;6.40;;
3177;SDS011;38141;42.666;23.344;2023-04-25T04:47:20;9.67;;;6.73;;
3177;SDS011;38141;42.666;23.344;2023-04-25T04:49:50;10.10;;;7.27;;
3177;SDS011;38141;42.666;23.344;2023-04-25T04:52:17;9.90;;;6.60;;
3177;SDS011;38141;42.666;23.344;2023-04-25T04:54:44;13.77;;;8.73;;
3177;SDS011;38141;42.666;23.344;2023-04-25T04:57:11;9.23;;;7.00;;
3177;SDS011;38141;42.666;23.344;2023-04-25T04:59:38;11.57;;;7.93;;
3177;SDS011;38141;42.666;23.344;2023-04-25T05:02:05;10.93;;;6.93;;
3177;SDS011;38141;42.666;23.344;2023-04-25T05:04:32;9.57;;;6.87;;
3177;SDS011;38141;42.666;23.344;2023-04-25T05:07:00;12.40;;;7.70;;
3177;SDS011;38141;42.666;23.344;2023-04-25T05:09:27;10.43;;;8.07;;
3177;SDS011;38141;42.666;23.344;2023-04-25T05:11:54;13.67;;;9.73;;
3177;SDS011;38141;42.666;23.344;2023-04-25T05:14:21;11.27;;;8.47;;
3177;SDS011;38141;42.666;23.344;2023-04-25T05:16:48;13.97;;;9.33;;
3177;SDS011;38141;42.666;23.344;2023-04-25T05:19:15;14.47;;;9.37;;
3177;SDS011;38141;42.666;23.344;2023-04-25T05:21:43;14.77;;;9.20;;
3177;SDS011;38141;42.666;23.344;2023-04-25T05:24:11;13.63;;;9.57;;
3177;SDS011;38141;42.666;23.344;2023-04-25T05:26:38;16.17;;;10.17;;
3177;SDS011;38141;42.666;23.344;2023-04-25T05:29:05;15.60;;;11.40;;
3177;SDS011;38141;42.666;23.344;2023-04-25T05:31:32;17.07;;;10.20;;
3177;SDS011;38141;42.666;23.344;2023-04-25T05:33:59;16.13;;;11.50;;
3177;SDS011;38141;42.666;23.344;2023-04-25T05:36:26;15.07;;;10.90;;
3177;SDS011;38141;42.666;23.344;2023-04-25T05:38:53;15.07;;;10.60;;
3177;SDS011;38141;42.666;23.344;2023-04-25T05:41:21;15.97;;;9.80;;
3177;SDS011;38141;42.666;23.344;2023-04-25T05:43:48;16.60;;;10.27;;
3177;SDS011;38141;42.666;23.344;2023-04-25T05:46:15;15.87;;;10.40;;
3177;SDS011;38141;42.666;23.344;2023-04-25T05:48:42;18.13;;;10.93;;
3177;SDS011;38141;42.666;23.344;2023-04-25T05:51:09;14.43;;;10.53;;
3177;SDS011;38141;42.666;23.344;2023-04-25T05:53:36;17.17;;;10.97;;
3177;SDS011;38141;42.666;23.344;2023-04-25T05:56:03;15.93;;;11.27;;
3177;SDS011;38141;42.666;23.344;2023-04-25T05:58:32;13.67;;;9.03;;
3177;SDS011;38141;42.666;23.344;2023-04-25T06:00:58;10.50;;;7.80;;
3177;SDS011;38141;42.666;23.344;2023-04-25T06:03:25;9.87;;;7.50;;
3177;SDS011;38141;42.666;23.344;2023-04-25T06:05:52;12.80;;;8.00;;
3177;SDS011;38141;42.666;23.344;2023-04-25T06:08:20;12.23;;;7.60;;
3177;SDS011;38141;42.666;23.344;2023-04-25T06:10:47;9.13;;;7.80;;
3177;SDS011;38141;42.666;23.344;2023-04-25T06:13:15;11.80;;;8.40;;
3177;SDS011;38141;42.666;23.344;2023-04-25T06:15:52;10.10;;;7.83;;
3177;SDS011;38141;42.666;23.344;2023-04-25T06:18:19;10.63;;;7.23;;
3177;SDS011;38141;42.666;23.344;2023-04-25T06:20:46;9.10;;;6.30;;
3177;SDS011;38141;42.666;23.344;2023-04-25T06:23:13;10.77;;;7.20;;
3177;SDS011;38141;42.666;23.344;2023-04-25T06:25:40;10.57;;;7.57;;
3177;SDS011;38141;42.666;23.344;2023-04-25T06:28:07;9.27;;;6.50;;
3177;SDS011;38141;42.666;23.344;2023-04-25T06:30:34;11.20;;;7.70;;
3177;SDS011;38141;42.666;23.344;2023-04-25T06:33:02;11.10;;;6.90;;
3177;SDS011;38141;42.666;23.344;2023-04-25T06:35:30;9.30;;;7.10;;
3177;SDS011;38141;42.666;23.344;2023-04-25T06:37:57;9.60;;;5.23;;
3177;SDS011;38141;42.666;23.344;2023-04-25T06:40:25;11.30;;;6.30;;
3177;SDS011;38141;42.666;23.344;2023-04-25T06:42:52;6.40;;;4.53;;
3177;SDS011;38141;42.666;23.344;2023-04-25T06:45:18;8.10;;;6.07;;
3177;SDS011;38141;42.666;23.344;2023-04-25T06:47:45;6.40;;;5.60;;
3177;SDS011;38141;42.666;23.344;2023-04-25T06:50:14;9.47;;;5.47;;
3177;SDS011;38141;42.666;23.344;2023-04-25T06:52:40;7.80;;;6.40;;
3177;SDS011;38141;42.666;23.344;2023-04-25T06:55:08;10.30;;;6.40;;
3177;SDS011;38141;42.666;23.344;2023-04-25T06:57:35;9.70;;;6.30;;
3177;SDS011;38141;42.666;23.344;2023-04-25T07:00:02;7.80;;;6.10;;
3177;SDS011;38141;42.666;23.344;2023-04-25T07:02:33;7.13;;;5.60;;
3177;SDS011;38141;42.666;23.344;2023-04-25T07:05:00;7.30;;;5.70;;
3177;SDS011;38141;42.666;23.344;2023-04-25T07:07:30;8.80;;;6.57;;
3177;SDS011;38141;42.666;23.344;2023-04-25T07:09:57;9.37;;;5.80;;
3177;SDS011;38141;42.666;23.344;2023-04-25T07:12:24;8.57;;;5.67;;
3177;SDS011;38141;42.666;23.344;2023-04-25T07:14:50;9.77;;;7.00;;
3177;SDS011;38141;42.666;23.344;2023-04-25T07:17:17;9.33;;;5.60;;
3177;SDS011;38141;42.666;23.344;2023-04-25T07:19:44;9.50;;;6.10;;
3177;SDS011;38141;42.666;23.344;2023-04-25T07:22:10;8.07;;;6.33;;
3177;SDS011;38141;42.666;23.344;2023-04-25T07:24:39;7.47;;;5.90;;
3177;SDS011;38141;42.666;23.344;2023-04-25T07:27:06;8.30;;;5.67;;
3177;SDS011;38141;42.666;23.344;2023-04-25T07:29:32;7.27;;;6.27;;
3177;SDS011;38141;42.666;23.344;2023-04-25T07:32:02;7.87;;;6.33;;
3177;SDS011;38141;42.666;23.344;2023-04-25T07:34:29;9.57;;;6.27;;
3177;SDS011;38141;42.666;23.344;2023-04-25T07:36:57;8.53;;;5.33;;
3177;SDS011;38141;42.666;23.344;2023-04-25T07:39:24;7.40;;;5.80;;
3177;SDS011;38141;42.666;23.344;2023-04-25T07:41:52;8.30;;;6.60;;
3177;SDS011;38141;42.666;23.344;2023-04-25T07:44:19;9.17;;;6.50;;
3177;SDS011;38141;42.666;23.344;2023-04-25T07:46:46;8.80;;;6.10;;
3177;SDS011;38141;42.666;23.344;2023-04-25T07:49:14;9.30;;;6.70;;
3177;SDS011;38141;42.666;23.344;2023-04-25T07:51:41;6.90;;;5.90;;
3177;SDS011;38141;42.666;23.344;2023-04-25T07:54:08;6.63;;;5.80;;
3177;SDS011;38141;42.666;23.344;2023-04-25T07:56:35;11.23;;;6.40;;
3177;SDS011;38141;42.666;23.344;2023-04-25T07:59:03;8.80;;;6.23;;
3177;SDS011;38141;42.666;23.344;2023-04-25T08:01:30;11.70;;;6.67;;
3177;SDS011;38141;42.666;23.344;2023-04-25T08:03:57;7.03;;;5.90;;
3177;SDS011;38141;42.666;23.344;2023-04-25T08:06:23;10.73;;;6.90;;
3177;SDS011;38141;42.666;23.344;2023-04-25T08:08:50;10.20;;;6.63;;
3177;SDS011;38141;42.666;23.344;2023-04-25T08:11:17;8.87;;;6.40;;
3177;SDS011;38141;42.666;23.344;2023-04-25T08:13:44;7.57;;;6.60;;
3177;SDS011;38141;42.666;23.344;2023-04-25T08:16:12;9.50;;;6.33;;
3177;SDS011;38141;42.666;23.344;2023-04-25T08:18:39;9.60;;;5.93;;
3177;SDS011;38141;42.666;23.344;2023-04-25T08:21:05;13.80;;;6.40;;
3177;SDS011;38141;42.666;23.344;2023-04-25T08:23:35;9.60;;;6.37;;
3177;SDS011;38141;42.666;23.344;2023-04-25T08:26:01;7.00;;;5.10;;
3177;SDS011;38141;42.666;23.344;2023-04-25T08:28:29;12.23;;;6.00;;
3177;SDS011;38141;42.666;23.344;2023-04-25T08:30:56;6.10;;;5.50;;
3177;SDS011;38141;42.666;23.344;2023-04-25T08:33:26;4.73;;;4.27;;
3177;SDS011;38141;42.666;23.344;2023-04-25T08:35:52;9.07;;;5.97;;
3177;SDS011;38141;42.666;23.344;2023-04-25T08:38:19;9.90;;;5.13;;
3177;SDS011;38141;42.666;23.344;2023-04-25T08:40:48;11.00;;;5.70;;
3177;SDS011;38141;42.666;23.344;2023-04-25T08:43:17;8.67;;;5.17;;
3177;SDS011;38141;42.666;23.344;2023-04-25T08:45:45;5.60;;;4.30;;
3177;SDS011;38141;42.666;23.344;2023-04-25T08:48:12;6.73;;;4.53;;
3177;SDS011;38141;42.666;23.344;2023-04-25T08:50:43;11.00;;;4.13;;
3177;SDS011;38141;42.666;23.344;2023-04-25T08:53:15;4.63;;;4.20;;
3177;SDS011;38141;42.666;23.344;2023-04-25T08:55:45;5.23;;;4.00;;
3177;SDS011;38141;42.666;23.344;2023-04-25T08:58:12;13.93;;;6.30;;
3177;SDS011;38141;42.666;23.344;2023-04-25T09:00:39;12.20;;;7.17;;
3177;SDS011;38141;42.666;23.344;2023-04-25T09:03:06;12.23;;;8.00;;
3177;SDS011;38141;42.666;23.344;2023-04-25T09:05:33;14.10;;;7.13;;
3177;SDS011;38141;42.666;23.344;2023-04-25T09:08:02;13.00;;;7.40;;
3177;SDS011;38141;42.666;23.344;2023-04-25T09:10:29;11.33;;;7.10;;
3177;SDS011;38141;42.666;23.344;2023-04-25T09:13:02;10.00;;;6.80;;
3177;SDS011;38141;42.666;23.344;2023-04-25T09:15:31;8.83;;;4.70;;
3177;SDS011;38141;42.666;23.344;2023-04-25T09:17:58;5.33;;;4.83;;
3177;SDS011;38141;42.666;23.344;2023-04-25T09:20:25;6.13;;;5.27;;
3177;SDS011;38141;42.666;23.344;2023-04-25T09:23:00;5.27;;;4.43;;
3177;SDS011;38141;42.666;23.344;2023-04-25T09:25:33;6.18;;;4.15;;
3177;SDS011;38141;42.666;23.344;2023-04-25T09:28:03;5.47;;;4.67;;
3177;SDS011;38141;42.666;23.344;2023-04-25T09:30:32;10.17;;;5.30;;
3177;SDS011;38141;42.666;23.344;2023-04-25T09:33:03;10.80;;;5.80;;
3177;SDS011;38141;42.666;23.344;2023-04-25T09:35:34;7.13;;;5.77;;
3177;SDS011;38141;42.666;23.344;2023-04-25T09:38:08;6.10;;;5.43;;
3177;SDS011;38141;42.666;23.344;2023-04-25T09:40:41;7.77;;;5.63;;
3177;SDS011;38141;42.666;23.344;2023-04-25T09:43:09;7.67;;;6.10;;
3177;SDS011;38141;42.666;23.344;2023-04-25T09:45:43;7.10;;;6.37;;
3177;SDS011;38141;42.666;23.344;2023-04-25T09:48:11;8.47;;;6.30;;
3177;SDS011;38141;42.666;23.344;2023-04-25T09:50:38;13.67;;;7.60;;
3177;SDS011;38141;42.666;23.344;2023-04-25T09:53:05;8.90;;;7.57;;
3177;SDS011;38141;42.666;23.344;2023-04-25T09:55:34;19.20;;;8.10;;
3177;SDS011;38141;42.666;23.344;2023-04-25T09:58:04;9.07;;;7.20;;
3177;SDS011;38141;42.666;23.344;2023-04-25T10:00:32;12.23;;;7.40;;
3177;SDS011;38141;42.666;23.344;2023-04-25T10:03:00;8.87;;;7.00;;
3177;SDS011;38141;42.666;23.344;2023-04-25T10:05:29;8.13;;;6.27;;
3177;SDS011;38141;42.666;23.344;2023-04-25T10:07:58;9.70;;;6.77;;
3177;SDS011;38141;42.666;23.344;2023-04-25T10:10:32;10.97;;;7.70;;
3177;SDS011;38141;42.666;23.344;2023-04-25T10:13:03;8.93;;;7.20;;
3177;SDS011;38141;42.666;23.344;2023-04-25T10:15:30;8.70;;;7.00;;
3177;SDS011;38141;42.666;23.344;2023-04-25T10:18:02;11.80;;;8.30;;
3177;SDS011;38141;42.666;23.344;2023-04-25T10:20:29;16.43;;;8.00;;
3177;SDS011;38141;42.666;23.344;2023-04-25T10:22:58;10.20;;;7.50;;
3177;SDS011;38141;42.666;23.344;2023-04-25T10:25:34;4.27;;;2.40;;
3177;SDS011;38141;42.666;23.344;2023-04-25T10:28:03;1.80;;;1.70;;
3177;SDS011;38141;42.666;23.344;2023-04-25T10:30:30;2.53;;;1.63;;
3177;SDS011;38141;42.666;23.344;2023-04-25T10:32:58;1.83;;;1.73;;
3177;SDS011;38141;42.666;23.344;2023-04-25T10:35:25;1.40;;;1.30;;
3177;SDS011;38141;42.666;23.344;2023-04-25T10:37:57;1.80;;;1.40;;
3177;SDS011;38141;42.666;23.344;2023-04-25T10:40:25;2.57;;;1.50;;
3177;SDS011;38141;42.666;23.344;2023-04-25T10:42:54;4.80;;;1.80;;
3177;SDS011;38141;42.666;23.344;2023-04-25T10:45:21;2.80;;;1.87;;
3177;SDS011;38141;42.666;23.344;2023-04-25T10:47:48;8.00;;;1.87;;
3177;SDS011;38141;42.666;23.344;2023-04-25T10:50:16;3.33;;;2.23;;
3177;SDS011;38141;42.666;23.344;2023-04-25T10:52:43;6.53;;;1.73;;
3177;SDS011;38141;42.666;23.344;2023-04-25T10:55:10;4.33;;;1.90;;
3177;SDS011;38141;42.666;23.344;2023-04-25T10:57:38;4.50;;;2.03;;
3177;SDS011;38141;42.666;23.344;2023-04-25T11:00:16;12.63;;;2.37;;
3177;SDS011;38141;42.666;23.344;2023-04-25T11:02:44;4.03;;;2.30;;
3177;SDS011;38141;42.666;23.344;2023-04-25T11:05:20;3.00;;;1.93;;
3177;SDS011;38141;42.666;23.344;2023-04-25T11:07:50;1.90;;;1.70;;
3177;SDS011;38141;42.666;23.344;2023-04-25T11:10:19;3.13;;;1.87;;
3177;SDS011;38141;42.666;23.344;2023-04-25T11:12:46;2.97;;;1.93;;
3177;SDS011;38141;42.666;23.344;2023-04-25T11:15:14;3.20;;;2.20;;
3177;SDS011;38141;42.666;23.344;2023-04-25T11:17:41;2.50;;;2.00;;
3177;SDS011;38141;42.666;23.344;2023-04-25T11:20:10;3.30;;;1.60;;
3177;SDS011;38141;42.666;23.344;2023-04-25T11:22:38;3.00;;;1.60;;
3177;SDS011;38141;42.666;23.344;2023-04-25T11:25:07;3.80;;;2.23;;
3177;SDS011;38141;42.666;23.344;2023-04-25T11:27:37;4.63;;;2.50;;
3177;SDS011;38141;42.666;23.344;2023-04-25T11:30:12;3.97;;;2.60;;
3177;SDS011;38141;42.666;23.344;2023-04-25T11:32:41;6.53;;;3.23;;
3177;SDS011;38141;42.666;23.344;2023-04-25T11:37:40;4.37;;;2.93;;
3177;SDS011;38141;42.666;23.344;2023-04-25T11:40:08;4.00;;;2.70;;
3177;SDS011;38141;42.666;23.344;2023-04-25T11:42:36;6.67;;;3.30;;
3177;SDS011;38141;42.666;23.344;2023-04-25T11:45:04;11.50;;;4.60;;
3177;SDS011;38141;42.666;23.344;2023-04-25T11:47:34;14.70;;;8.03;;
3177;SDS011;38141;42.666;23.344;2023-04-25T11:50:01;4.60;;;3.30;;
3177;SDS011;38141;42.666;23.344;2023-04-25T11:52:35;3.23;;;1.73;;
3177;SDS011;38141;42.666;23.344;2023-04-25T11:55:04;2.80;;;1.67;;
3177;SDS011;38141;42.666;23.344;2023-04-25T11:57:32;2.33;;;1.87;;
3177;SDS011;38141;42.666;23.344;2023-04-25T12:00:05;2.60;;;1.73;;
3177;SDS011;38141;42.666;23.344;2023-04-25T12:02:37;1.70;;;1.60;;
3177;SDS011;38141;42.666;23.344;2023-04-25T12:05:08;1.40;;;1.30;;
3177;SDS011;38141;42.666;23.344;2023-04-25T12:07:35;2.27;;;1.40;;
3177;SDS011;38141;42.666;23.344;2023-04-25T12:10:06;1.50;;;1.40;;
3177;SDS011;38141;42.666;23.344;2023-04-25T12:12:34;1.43;;;1.00;;
3177;SDS011;38141;42.666;23.344;2023-04-25T12:15:10;1.20;;;1.10;;
3177;SDS011;38141;42.666;23.344;2023-04-25T12:17:49;2.23;;;1.70;;
3177;SDS011;38141;42.666;23.344;2023-04-25T12:20:18;4.17;;;1.80;;
3177;SDS011;38141;42.666;23.344;2023-04-25T12:22:49;4.50;;;2.00;;
3177;SDS011;38141;42.666;23.344;2023-04-25T12:28:14;2.37;;;1.87;;
3177;SDS011;38141;42.666;23.344;2023-04-25T12:30:54;2.93;;;1.73;;
3177;SDS011;38141;42.666;23.344;2023-04-25T12:33:24;2.10;;;1.90;;
3177;SDS011;38141;42.666;23.344;2023-04-25T12:35:52;2.90;;;2.10;;
3177;SDS011;38141;42.666;23.344;2023-04-25T12:38:22;7.07;;;3.50;;
3177;SDS011;38141;42.666;23.344;2023-04-25T12:40:50;6.50;;;3.50;;
3177;SDS011;38141;42.666;23.344;2023-04-25T12:43:17;3.80;;;2.77;;
3177;SDS011;38141;42.666;23.344;2023-04-25T12:45:44;4.27;;;2.57;;
3177;SDS011;38141;42.666;23.344;2023-04-25T12:48:11;2.90;;;2.43;;
3177;SDS011;38141;42.666;23.344;2023-04-25T12:50:39;4.33;;;2.30;;
3177;SDS011;38141;42.666;23.344;2023-04-25T12:53:06;3.80;;;2.10;;
3177;SDS011;38141;42.666;23.344;2023-04-25T12:55:33;3.47;;;1.80;;
3177;SDS011;38141;42.666;23.344;2023-04-25T12:58:00;8.53;;;2.43;;
3177;SDS011;38141;42.666;23.344;2023-04-25T13:00:28;18.17;;;9.97;;
3177;SDS011;38141;42.666;23.344;2023-04-25T13:02:54;5.10;;;3.00;;
3177;SDS011;38141;42.666;23.344;2023-04-25T13:05:21;4.70;;;2.00;;
3177;SDS011;38141;42.666;23.344;2023-04-25T13:07:50;2.50;;;1.97;;
3177;SDS011;38141;42.666;23.344;2023-04-25T13:10:17;3.70;;;1.80;;
3177;SDS011;38141;42.666;23.344;2023-04-25T13:12:44;4.93;;;2.57;;
3177;SDS011;38141;42.666;23.344;2023-04-25T13:15:11;2.97;;;2.30;;
3177;SDS011;38141;42.666;23.344;2023-04-25T13:17:37;31.43;;;20.13;;
3177;SDS011;38141;42.666;23.344;2023-04-25T13:20:05;6.93;;;5.57;;
3177;SDS011;38141;42.666;23.344;2023-04-25T13:22:33;3.53;;;2.30;;
3177;SDS011;38141;42.666;23.344;2023-04-25T13:25:03;3.50;;;2.50;;
3177;SDS011;38141;42.666;23.344;2023-04-25T13:27:31;3.93;;;1.97;;
3177;SDS011;38141;42.666;23.344;2023-04-25T13:29:59;4.50;;;1.93;;
3177;SDS011;38141;42.666;23.344;2023-04-25T13:32:26;2.73;;;2.00;;
3177;SDS011;38141;42.666;23.344;2023-04-25T13:34:55;3.30;;;2.23;;
3177;SDS011;38141;42.666;23.344;2023-04-25T13:40:09;3.63;;;2.43;;
3177;SDS011;38141;42.666;23.344;2023-04-25T13:42:37;6.13;;;3.37;;
3177;SDS011;38141;42.666;23.344;2023-04-25T13:45:05;4.43;;;2.90;;
3177;SDS011;38141;42.666;23.344;2023-04-25T13:47:33;5.03;;;2.63;;
3177;SDS011;38141;42.666;23.344;2023-04-25T13:50:00;6.90;;;3.10;;
3177;SDS011;38141;42.666;23.344;2023-04-25T13:52:28;4.83;;;2.57;;
3177;SDS011;38141;42.666;23.344;2023-04-25T13:54:58;6.07;;;2.63;;
3177;SDS011;38141;42.666;23.344;2023-04-25T13:57:26;4.43;;;2.50;;
3177;SDS011;38141;42.666;23.344;2023-04-25T14:00:00;3.87;;;2.73;;
3177;SDS011;38141;42.666;23.344;2023-04-25T14:02:29;4.73;;;2.27;;
3177;SDS011;38141;42.666;23.344;2023-04-25T14:04:56;3.10;;;2.50;;
3177;SDS011;38141;42.666;23.344;2023-04-25T14:10:01;2.10;;;1.90;;
3177;SDS011;38141;42.666;23.344;2023-04-25T14:12:30;2.33;;;2.07;;
3177;SDS011;38141;42.666;23.344;2023-04-25T14:14:57;2.27;;;1.77;;
3177;SDS011;38141;42.666;23.344;2023-04-25T14:17:24;2.83;;;2.23;;
3177;SDS011;38141;42.666;23.344;2023-04-25T14:19:50;3.47;;;2.20;;
3177;SDS011;38141;42.666;23.344;2023-04-25T14:22:17;2.10;;;1.80;;
3177;SDS011;38141;42.666;23.344;2023-04-25T14:24:44;2.17;;;1.97;;
3177;SDS011;38141;42.666;23.344;2023-04-25T14:27:11;2.90;;;2.10;;
3177;SDS011;38141;42.666;23.344;2023-04-25T14:29:40;3.73;;;1.80;;
3177;SDS011;38141;42.666;23.344;2023-04-25T14:32:08;2.70;;;2.00;;
3177;SDS011;38141;42.666;23.344;2023-04-25T14:34:37;2.57;;;1.90;;
3177;SDS011;38141;42.666;23.344;2023-04-25T14:37:04;1.97;;;1.77;;
3177;SDS011;38141;42.666;23.344;2023-04-25T14:39:31;2.70;;;1.83;;
3177;SDS011;38141;42.666;23.344;2023-04-25T14:41:58;3.90;;;1.87;;
3177;SDS011;38141;42.666;23.344;2023-04-25T14:44:25;2.70;;;1.80;;
3177;SDS011;38141;42.666;23.344;2023-04-25T14:46:54;2.53;;;2.23;;
3177;SDS011;38141;42.666;23.344;2023-04-25T14:49:27;3.77;;;2.03;;
3177;SDS011;38141;42.666;23.344;2023-04-25T14:54:52;2.33;;;2.13;;
3177;SDS011;38141;42.666;23.344;2023-04-25T14:57:18;2.60;;;2.20;;
3177;SDS011;38141;42.666;23.344;2023-04-25T14:59:45;3.20;;;2.00;;
3177;SDS011;38141;42.666;23.344;2023-04-25T15:02:13;3.63;;;1.93;;